Time;durP1;ratioP1;P1;durP2;ratioP2;P2;SDS_P1;SDS_P2;PMS_P1;PMS_P2;Temp;Humidity;BMP_temperature;BMP_pressure;BME280_temperature;BME280_humidity;BME280_pressure;Samples;Min_cycle;Max_cycle;Signal;HPM_P1;HPM_P2
2022/07/06 00:01:30;;;;;;;5.15;3.05;;;15.00;71.10;;;;;;5053350;28;20044;-48
2022/07/06 00:03:55;;;;;;;6.45;2.30;;;15.00;71.00;;;;;;5053274;28;20031;-49
2022/07/06 00:06:22;;;;;;;9.40;2.67;;;14.80;71.10;;;;;;5053094;28;20469;-48
2022/07/06 00:08:48;;;;;;;4.82;3.38;;;14.80;71.40;;;;;;5053283;28;20021;-49
2022/07/06 00:11:14;;;;;;;1.52;1.40;;;14.80;71.70;;;;;;5053476;28;20036;-48
2022/07/06 00:13:39;;;;;;;7.07;1.80;;;14.70;71.70;;;;;;5053314;28;20053;-49
2022/07/06 00:16:05;;;;;;;5.88;2.28;;;14.80;71.80;;;;;;5052757;28;20045;-48
2022/07/06 00:18:31;;;;;;;2.10;1.90;;;14.80;71.80;;;;;;5053137;28;20501;-48
2022/07/06 00:20:57;;;;;;;2.67;2.25;;;14.80;71.80;;;;;;5053033;28;20043;-49
2022/07/06 00:23:22;;;;;;;2.63;1.65;;;14.70;72.00;;;;;;5053550;28;20020;-50
2022/07/06 00:25:48;;;;;;;4.70;1.98;;;14.60;72.40;;;;;;5052930;28;20040;-47
2022/07/06 00:28:14;;;;;;;6.95;2.25;;;14.50;72.90;;;;;;5052620;28;20137;-47
2022/07/06 00:30:40;;;;;;;2.30;2.10;;;14.50;73.00;;;;;;5052836;28;20103;-48
2022/07/06 00:33:06;;;;;;;3.55;1.90;;;14.40;73.00;;;;;;5052868;28;20125;-48
2022/07/06 00:35:32;;;;;;;5.05;1.77;;;14.40;73.10;;;;;;5052916;28;20036;-48
2022/07/06 00:37:58;;;;;;;6.35;2.30;;;14.30;73.20;;;;;;5052768;28;20389;-48
2022/07/06 00:40:23;;;;;;;4.68;2.65;;;14.30;73.80;;;;;;5051425;28;20036;-48
2022/07/06 00:42:49;;;;;;;7.88;2.45;;;14.30;73.40;;;;;;5052858;28;20021;-48
2022/07/06 00:45:16;;;;;;;2.35;2.10;;;14.30;73.40;;;;;;5053421;28;20029;-48
2022/07/06 00:47:42;;;;;;;2.13;1.90;;;14.30;73.70;;;;;;5053542;28;20028;-48
2022/07/06 00:50:13;;;;;;;3.83;2.30;;;14.30;73.40;;;;;;5052091;28;20508;-47
2022/07/06 00:53:07;;;;;;;10.05;2.40;;;14.40;73.30;;;;;;5051854;28;20362;-48
2022/07/06 00:55:36;;;;;;;4.80;2.67;;;14.40;72.90;;;;;;5052657;28;20047;-47
2022/07/06 00:58:03;;;;;;;4.60;2.03;;;14.30;73.30;;;;;;5051399;28;20049;-47
2022/07/06 01:00:30;;;;;;;7.05;2.38;;;14.40;72.80;;;;;;5052953;28;20024;-47
2022/07/06 01:02:56;;;;;;;4.65;2.45;;;14.50;72.20;;;;;;5055718;28;20021;-47
2022/07/06 01:05:23;;;;;;;3.47;1.98;;;14.60;71.70;;;;;;5056359;28;20048;-46
2022/07/06 01:07:50;;;;;;;5.03;2.20;;;14.50;71.40;;;;;;5056331;28;20056;-47
2022/07/06 01:10:18;;;;;;;3.58;2.13;;;14.60;71.60;;;;;;5056484;28;20060;-47
2022/07/06 01:12:45;;;;;;;3.22;1.83;;;14.60;71.30;;;;;;5056215;28;20553;-48
2022/07/06 01:15:18;;;;;;;2.80;2.17;;;14.50;71.20;;;;;;5056130;28;20115;-49
2022/07/06 01:17:44;;;;;;;5.53;2.42;;;14.40;71.20;;;;;;5055808;28;20021;-51
2022/07/06 01:20:10;;;;;;;4.55;2.22;;;14.30;71.90;;;;;;5057061;28;20043;-46
2022/07/06 01:22:36;;;;;;;2.38;1.75;;;14.30;71.60;;;;;;5055378;28;20021;-51
2022/07/06 01:25:02;;;;;;;4.63;1.77;;;14.30;71.90;;;;;;5056849;28;20028;-48
2022/07/06 01:27:27;;;;;;;1.40;1.30;;;14.30;71.90;;;;;;5054807;28;20036;-48
2022/07/06 01:29:53;;;;;;;5.63;2.03;;;14.20;72.10;;;;;;5055961;28;20112;-47
2022/07/06 01:32:19;;;;;;;4.68;2.20;;;14.10;72.40;;;;;;5054585;28;20060;-47
2022/07/06 01:34:45;;;;;;;4.80;2.60;;;14.20;72.20;;;;;;5054660;28;20388;-49
2022/07/06 01:37:10;;;;;;;2.90;1.95;;;14.20;72.00;;;;;;5055838;28;20116;-47
2022/07/06 01:39:36;;;;;;;2.90;1.88;;;14.20;72.10;;;;;;5056064;28;20101;-48
2022/07/06 01:42:02;;;;;;;5.13;2.30;;;14.10;72.10;;;;;;5056005;28;20464;-47
2022/07/06 01:44:28;;;;;;;2.47;1.83;;;14.10;72.30;;;;;;5055564;28;20417;-48
2022/07/06 01:46:53;;;;;;;3.78;1.80;;;14.00;72.50;;;;;;5055580;28;20024;-46
2022/07/06 01:49:19;;;;;;;5.00;2.10;;;13.90;72.70;;;;;;5056036;28;20118;-48
2022/07/06 01:51:45;;;;;;;2.92;2.63;;;13.90;72.70;;;;;;5055654;28;20029;-47
2022/07/06 01:54:10;;;;;;;2.97;1.85;;;13.90;72.90;;;;;;5055723;28;20515;-47
2022/07/06 01:56:36;;;;;;;1.98;1.80;;;13.80;72.90;;;;;;5055345;28;20373;-47
2022/07/06 01:59:01;;;;;;;2.67;1.65;;;13.80;73.20;;;;;;5055566;28;20025;-47
2022/07/06 02:01:27;;;;;;;2.78;2.13;;;13.80;73.70;;;;;;5055282;28;20025;-47
2022/07/06 02:03:53;;;;;;;2.55;1.80;;;13.70;73.60;;;;;;5054266;28;20102;-48
2022/07/06 02:06:18;;;;;;;4.80;2.38;;;13.70;73.80;;;;;;5055576;28;20155;-47
2022/07/06 02:08:44;;;;;;;6.97;2.03;;;13.70;73.90;;;;;;5055417;28;20449;-48
2022/07/06 02:11:10;;;;;;;4.25;2.13;;;13.70;74.20;;;;;;5055588;28;20025;-47
2022/07/06 02:13:36;;;;;;;3.25;2.33;;;13.50;74.40;;;;;;5055602;28;20037;-47
2022/07/06 02:16:03;;;;;;;7.18;2.47;;;13.60;74.60;;;;;;5054908;28;20048;-49
2022/07/06 02:18:29;;;;;;;6.18;2.70;;;13.60;74.50;;;;;;5054946;28;20033;-48
2022/07/06 02:20:55;;;;;;;5.28;1.98;;;13.60;74.90;;;;;;5054910;28;20052;-48
2022/07/06 02:23:20;;;;;;;5.45;2.13;;;13.50;75.00;;;;;;5055088;28;20035;-47
2022/07/06 02:25:46;;;;;;;2.33;1.85;;;13.50;75.30;;;;;;5037082;28;20102;-47
2022/07/06 02:28:12;;;;;;;3.58;3.10;;;13.50;75.40;;;;;;5055237;28;20473;-47
2022/07/06 02:30:38;;;;;;;8.27;2.03;;;13.50;75.60;;;;;;5055000;28;20033;-46
2022/07/06 02:33:03;;;;;;;9.48;2.15;;;13.50;75.50;;;;;;5053536;28;20075;-47
2022/07/06 02:35:29;;;;;;;5.25;1.92;;;13.50;75.60;;;;;;5054840;28;20036;-47
2022/07/06 02:37:55;;;;;;;5.68;1.90;;;13.40;76.00;;;;;;5054618;28;20053;-50
2022/07/06 02:40:20;;;;;;;4.93;2.05;;;13.30;76.20;;;;;;5054668;28;20366;-48
2022/07/06 02:42:46;;;;;;;5.40;1.83;;;13.30;76.50;;;;;;5055061;28;20106;-48
2022/07/06 02:45:12;;;;;;;3.75;1.98;;;13.30;76.60;;;;;;5054607;28;20476;-46
2022/07/06 02:47:38;;;;;;;4.28;1.80;;;13.30;76.60;;;;;;5053165;28;20028;-47
2022/07/06 02:50:05;;;;;;;3.83;1.45;;;13.30;76.70;;;;;;5054980;28;20354;-46
2022/07/06 02:52:30;;;;;;;3.28;2.25;;;13.30;76.90;;;;;;5053436;28;20503;-51
2022/07/06 02:54:56;;;;;;;3.78;1.92;;;13.30;76.90;;;;;;5054177;28;20107;-47
2022/07/06 02:57:22;;;;;;;1.90;1.30;;;13.40;76.90;;;;;;5054747;28;20044;-47
2022/07/06 02:59:49;;;;;;;10.05;2.88;;;13.40;76.80;;;;;;5054180;28;20461;-47
2022/07/06 20:05:44;;;;;;;1.77;1.10;;;19.60;53.30;;;;;;5071507;28;20382;-48
2022/07/06 20:08:10;;;;;;;5.80;1.05;;;19.70;53.20;;;;;;5070560;28;20024;-48
2022/07/06 20:10:35;;;;;;;2.35;0.93;;;19.80;53.00;;;;;;5070872;28;20033;-50
2022/07/06 20:13:01;;;;;;;3.80;1.75;;;19.90;52.90;;;;;;5071196;28;20075;-50
2022/07/06 20:15:27;;;;;;;7.03;1.30;;;20.00;52.40;;;;;;5070522;28;20044;-48
2022/07/06 20:17:53;;;;;;;3.00;1.15;;;20.10;52.30;;;;;;5070804;28;20056;-47
2022/07/06 20:20:18;;;;;;;1.02;0.90;;;20.00;52.30;;;;;;5069174;28;20056;-50
2022/07/06 20:22:44;;;;;;;2.15;1.00;;;20.10;52.40;;;;;;5070402;28;20025;-48
2022/07/06 20:25:09;;;;;;;4.55;1.27;;;20.10;52.40;;;;;;5068945;28;20021;-48
2022/07/06 20:27:35;;;;;;;5.60;0.93;;;20.20;52.30;;;;;;5068998;28;20120;-50
2022/07/06 20:30:02;;;;;;;3.63;1.40;;;20.00;52.80;;;;;;5070577;28;20418;-50
2022/07/06 20:32:28;;;;;;;2.95;1.02;;;20.00;52.80;;;;;;5070254;28;20013;-47
2022/07/06 20:34:54;;;;;;;4.88;1.20;;;20.00;52.80;;;;;;5070233;28;20069;-52
2022/07/06 20:37:19;;;;;;;5.45;1.25;;;20.00;52.80;;;;;;5070500;28;20422;-48
2022/07/06 20:39:45;;;;;;;1.52;1.20;;;20.10;52.80;;;;;;5069819;28;20036;-52
2022/07/06 20:42:11;;;;;;;3.83;1.58;;;20.00;53.00;;;;;;5069989;28;20017;-50
2022/07/06 20:44:37;;;;;;;1.85;0.98;;;20.00;53.20;;;;;;5070034;28;20074;-48
2022/07/06 20:47:03;;;;;;;1.95;1.05;;;19.80;53.40;;;;;;5070093;28;20024;-48
2022/07/06 20:49:28;;;;;;;2.80;0.98;;;19.70;53.90;;;;;;5070062;28;20021;-49
2022/07/06 20:51:54;;;;;;;2.30;1.23;;;19.70;53.90;;;;;;5069972;28;20131;-50
2022/07/06 20:54:20;;;;;;;4.57;2.25;;;19.70;53.80;;;;;;5070644;28;20024;-48
2022/07/06 20:56:46;;;;;;;3.50;1.02;;;19.80;53.50;;;;;;5070075;28;20441;-50
2022/07/06 20:59:12;;;;;;;4.65;0.90;;;19.80;53.60;;;;;;5069644;28;20035;-47
2022/07/06 21:01:39;;;;;;;1.77;1.20;;;19.80;53.80;;;;;;5069605;28;20111;-48
2022/07/06 21:04:04;;;;;;;4.43;1.00;;;19.60;54.30;;;;;;5068531;28;20095;-48
2022/07/06 21:06:30;;;;;;;2.78;1.10;;;19.50;54.40;;;;;;5069963;28;20025;-50
2022/07/06 21:08:56;;;;;;;3.20;1.33;;;19.60;54.20;;;;;;5068263;28;20017;-51
2022/07/06 21:11:21;;;;;;;1.33;1.05;;;19.60;54.20;;;;;;5070029;28;20483;-52
2022/07/06 21:13:47;;;;;;;2.78;0.98;;;19.60;54.20;;;;;;5069633;28;20028;-47
2022/07/06 21:16:13;;;;;;;3.75;1.30;;;19.50;54.50;;;;;;5061505;28;20029;-48
2022/07/06 21:18:39;;;;;;;3.22;1.05;;;19.60;54.20;;;;;;5056689;28;20021;-52
2022/07/06 21:21:06;;;;;;;2.95;1.00;;;19.70;54.10;;;;;;5056737;28;20039;-50
2022/07/06 21:23:35;;;;;;;3.75;1.20;;;19.60;54.40;;;;;;5054922;28;20028;-50
2022/07/06 21:26:01;;;;;;;2.72;0.90;;;19.70;54.30;;;;;;5056408;28;20025;-49
2022/07/06 21:28:27;;;;;;;3.63;1.20;;;19.60;54.40;;;;;;5054671;28;20021;-47
2022/07/06 21:30:52;;;;;;;4.32;1.38;;;19.70;54.40;;;;;;5055706;28;20362;-47
2022/07/06 21:33:18;;;;;;;3.35;1.52;;;19.70;54.60;;;;;;5054421;28;20092;-48
2022/07/06 21:35:44;;;;;;;2.55;1.52;;;19.70;54.60;;;;;;5056233;28;20014;-47
2022/07/06 21:38:10;;;;;;;2.72;1.20;;;19.60;54.70;;;;;;5054550;28;20199;-48
2022/07/06 21:40:35;;;;;;;7.97;1.45;;;19.70;54.70;;;;;;5056146;28;20118;-48
2022/07/06 21:43:01;;;;;;;3.92;1.55;;;19.70;55.20;;;;;;5056050;28;20056;-47
2022/07/06 21:45:27;;;;;;;3.70;1.38;;;19.70;55.70;;;;;;5054645;28;20083;-47
2022/07/06 21:47:53;;;;;;;2.60;1.70;;;19.60;55.90;;;;;;5055415;28;20032;-49
2022/07/06 21:50:19;;;;;;;4.00;1.50;;;19.50;56.70;;;;;;5055595;28;20023;-53
2022/07/06 21:52:44;;;;;;;1.42;1.33;;;19.40;56.90;;;;;;5054443;28;20130;-46
2022/07/06 21:55:10;;;;;;;2.03;1.20;;;19.40;56.60;;;;;;5054476;28;20366;-51
2022/07/06 21:57:36;;;;;;;2.13;1.27;;;19.40;56.70;;;;;;5056802;28;20473;-49
2022/07/06 22:00:04;;;;;;;5.28;1.13;;;19.30;57.10;;;;;;5055345;28;20029;-47
2022/07/06 22:02:30;;;;;;;5.78;1.50;;;19.30;58.00;;;;;;5055313;28;20393;-49
2022/07/06 22:04:55;;;;;;;3.53;1.92;;;19.40;57.90;;;;;;5054935;28;20045;-48
2022/07/06 22:07:21;;;;;;;3.45;1.83;;;19.40;58.70;;;;;;5055547;28;20067;-48
2022/07/06 22:09:47;;;;;;;3.00;1.63;;;19.30;59.30;;;;;;5055839;28;20021;-48
2022/07/06 22:12:12;;;;;;;4.18;2.65;;;19.30;60.30;;;;;;5053879;28;20032;-49
2022/07/06 22:14:38;;;;;;;2.97;2.03;;;19.20;60.00;;;;;;5055413;28;20536;-48
2022/07/06 22:17:04;;;;;;;4.63;2.25;;;19.30;60.00;;;;;;5054855;28;20051;-50
2022/07/06 22:19:30;;;;;;;7.30;2.03;;;19.20;60.20;;;;;;5054719;28;20027;-47
2022/07/06 22:21:55;;;;;;;3.28;2.70;;;19.30;60.00;;;;;;5055040;28;20537;-48
2022/07/06 22:24:21;;;;;;;3.28;2.15;;;19.30;59.90;;;;;;5053192;28;20041;-47
2022/07/06 22:26:47;;;;;;;4.28;2.08;;;19.30;60.20;;;;;;5052838;28;20067;-49
2022/07/06 22:29:12;;;;;;;6.82;2.78;;;19.30;60.20;;;;;;5053951;28;20036;-48
2022/07/06 22:31:38;;;;;;;4.07;1.95;;;19.30;60.20;;;;;;5054608;28;20418;-48
2022/07/06 22:34:04;;;;;;;11.35;2.88;;;19.30;60.40;;;;;;5054509;28;20071;-48
2022/07/06 22:36:33;;;;;;;3.72;2.03;;;19.30;60.30;;;;;;5053135;28;20049;-47
2022/07/06 22:38:59;;;;;;;6.47;2.28;;;19.30;60.50;;;;;;5054241;28;20052;-48
2022/07/06 22:41:29;;;;;;;7.30;2.15;;;19.30;60.60;;;;;;5054456;28;20025;-49
2022/07/06 22:43:54;;;;;;;4.80;2.57;;;19.20;61.10;;;;;;5054570;28;20025;-49
2022/07/06 22:46:20;;;;;;;7.57;2.97;;;19.30;61.20;;;;;;5054095;28;20420;-47
2022/07/06 22:48:46;;;;;;;7.50;2.10;;;19.30;61.20;;;;;;5054113;28;20025;-49
2022/07/06 22:51:12;;;;;;;8.20;2.47;;;19.30;61.10;;;;;;5053988;28;20024;-47
2022/07/06 22:53:38;;;;;;;3.97;2.13;;;19.30;61.20;;;;;;5054995;28;20442;-48
2022/07/06 22:56:05;;;;;;;6.70;2.47;;;19.30;61.30;;;;;;5054342;28;20025;-51
2022/07/06 22:58:32;;;;;;;7.65;2.35;;;19.30;61.60;;;;;;5052931;28;20021;-49
2022/07/06 23:00:58;;;;;;;7.38;3.05;;;19.20;61.70;;;;;;5053988;28;20021;-50
2022/07/06 23:03:26;;;;;;;8.45;2.13;;;19.30;61.60;;;;;;5053989;28;20488;-50
2022/07/06 23:05:52;;;;;;;4.07;2.25;;;19.30;61.50;;;;;;5054111;28;20017;-49
2022/07/06 23:08:18;;;;;;;2.15;1.70;;;19.30;61.40;;;;;;5053929;28;20358;-47
2022/07/06 23:10:44;;;;;;;11.65;4.03;;;19.30;61.60;;;;;;5052821;28;20017;-48
2022/07/06 23:13:10;;;;;;;6.13;2.13;;;19.20;61.60;;;;;;5053544;28;20021;-51
2022/07/06 23:15:35;;;;;;;2.50;2.30;;;19.20;61.80;;;;;;5053981;28;20092;-49
2022/07/06 23:18:02;;;;;;;9.52;2.67;;;19.20;61.70;;;;;;5053979;28;20029;-47
2022/07/06 23:20:28;;;;;;;6.65;2.50;;;19.30;61.70;;;;;;5053485;28;20389;-50
2022/07/06 23:22:54;;;;;;;4.00;2.05;;;19.20;61.90;;;;;;5053494;28;20099;-49
2022/07/06 23:25:20;;;;;;;6.70;1.90;;;19.20;61.70;;;;;;5053628;28;20450;-48
2022/07/06 23:27:46;;;;;;;5.07;1.73;;;19.20;61.60;;;;;;5052075;28;20115;-48
2022/07/06 23:30:12;;;;;;;6.85;2.03;;;19.20;61.70;;;;;;5053659;28;20108;-49
2022/07/06 23:32:38;;;;;;;4.15;1.88;;;19.20;61.70;;;;;;5053850;28;20021;-45
2022/07/06 23:35:04;;;;;;;6.65;2.28;;;19.20;61.60;;;;;;5051902;28;20485;-48
2022/07/06 23:37:30;;;;;;;2.90;1.88;;;19.20;61.50;;;;;;5052063;28;20116;-49
2022/07/06 23:39:55;;;;;;;5.95;2.13;;;19.20;61.60;;;;;;5051663;28;20495;-48
2022/07/06 23:42:21;;;;;;;6.57;1.92;;;19.10;61.60;;;;;;5053507;28;20040;-49
2022/07/06 23:44:47;;;;;;;3.25;1.55;;;19.10;61.70;;;;;;5053701;28;20025;-46
2022/07/06 23:47:12;;;;;;;6.15;1.65;;;19.10;61.60;;;;;;5053228;28;20032;-49
2022/07/06 23:49:38;;;;;;;6.03;1.40;;;19.10;61.60;;;;;;5053175;28;20033;-50
2022/07/06 23:52:04;;;;;;;5.97;1.52;;;19.10;61.70;;;;;;5053142;28;20092;-50
2022/07/06 23:54:30;;;;;;;1.92;1.73;;;19.20;61.50;;;;;;5053833;28;20029;-51
2022/07/06 23:56:56;;;;;;;3.67;1.98;;;19.20;61.50;;;;;;5053634;28;20025;-50
2022/07/06 23:59:22;;;;;;;3.75;1.80;;;19.20;62.10;;;;;;5053881;28;20025;-47
